createdAt,value
2018-11-23T00:01:16.178Z,21.15
2018-11-23T00:06:18.754Z,21.19
2018-11-23T00:11:21.258Z,21.18
2018-11-23T00:16:23.831Z,21.17
2018-11-23T00:21:26.338Z,21.16
2018-11-23T00:26:29.641Z,21.12
2018-11-23T00:31:32.170Z,21.16
2018-11-23T00:36:34.723Z,21.15
2018-11-23T00:41:37.247Z,21.16
2018-11-23T00:46:39.783Z,21.14
2018-11-23T00:51:42.319Z,21.13
2018-11-23T00:56:44.889Z,21.18
2018-11-23T01:01:52.903Z,21.14
2018-11-23T01:06:55.412Z,21.09
2018-11-23T01:11:57.919Z,21.09
2018-11-23T01:17:00.427Z,21.10
2018-11-23T01:22:02.978Z,21.07
2018-11-23T01:27:05.753Z,21.08
2018-11-23T01:32:08.269Z,21.06
2018-11-23T01:37:10.778Z,21.03
2018-11-23T01:42:13.303Z,21.00
2018-11-23T01:47:15.865Z,20.98
2018-11-23T01:52:18.375Z,20.92
2018-11-23T01:57:20.883Z,20.91
2018-11-23T02:02:23.426Z,20.82
2018-11-23T02:07:25.925Z,20.82
2018-11-23T02:12:28.421Z,20.78
2018-11-23T02:17:30.985Z,20.72
2018-11-23T02:22:33.517Z,20.81
2018-11-23T02:27:36.038Z,20.79
2018-11-23T02:32:38.601Z,20.81
2018-11-23T02:37:41.125Z,20.81
2018-11-23T02:42:43.822Z,20.82
2018-11-23T02:47:47.025Z,20.80
2018-11-23T02:52:50.675Z,20.77
2018-11-23T02:57:53.218Z,20.78
2018-11-23T03:02:55.757Z,20.78
2018-11-23T03:07:58.366Z,20.71
2018-11-23T03:13:00.945Z,20.73
2018-11-23T03:18:03.656Z,20.76
2018-11-23T03:23:06.203Z,20.79
2018-11-23T03:28:08.718Z,20.80
2018-11-23T03:33:11.279Z,20.83
2018-11-23T03:38:13.843Z,20.85
2018-11-23T03:43:16.369Z,20.88
2018-11-23T03:48:18.931Z,20.88
2018-11-23T03:53:21.465Z,20.87
2018-11-23T03:58:23.998Z,20.85
2018-11-23T04:03:26.591Z,20.83
2018-11-23T04:08:29.114Z,20.81
2018-11-23T04:13:31.854Z,20.80
2018-11-23T04:18:34.419Z,20.79
2018-11-23T04:23:36.956Z,20.76
2018-11-23T04:28:39.503Z,20.74
2018-11-23T04:33:42.112Z,20.73
2018-11-23T04:38:44.646Z,20.70
2018-11-23T04:43:47.225Z,20.54
2018-11-23T04:48:50.171Z,20.54
2018-11-23T04:53:56.837Z,20.61
2018-11-23T04:58:59.539Z,20.56
2018-11-23T05:04:02.054Z,20.41
2018-11-23T05:09:06.422Z,20.41
2018-11-23T05:14:08.935Z,20.38
2018-11-23T05:19:11.485Z,20.34
2018-11-23T05:24:14.029Z,20.32
2018-11-23T05:29:16.565Z,20.31
2018-11-23T05:34:19.111Z,20.30
2018-11-23T05:39:21.714Z,20.28
2018-11-23T05:44:24.252Z,20.28
2018-11-23T05:49:26.806Z,20.26
2018-11-23T05:54:29.363Z,20.25
2018-11-23T05:59:31.908Z,20.23
2018-11-23T06:04:34.439Z,20.22
2018-11-23T06:09:36.981Z,20.20
2018-11-23T06:14:39.536Z,20.21
2018-11-23T06:19:42.083Z,20.18
2018-11-23T06:24:44.634Z,20.17
2018-11-23T06:29:47.172Z,20.15
2018-11-23T06:34:49.818Z,20.16
2018-11-23T06:39:52.436Z,20.15
2018-11-23T06:44:54.966Z,20.14
2018-11-23T06:49:57.559Z,20.12
2018-11-23T06:55:00.094Z,20.09
2018-11-23T07:00:02.911Z,20.06
2018-11-23T07:05:06.055Z,20.06
2018-11-23T07:10:09.187Z,20.05
2018-11-23T07:15:12.444Z,20.02
2018-11-23T07:20:15.529Z,20.01
2018-11-23T07:25:18.075Z,19.96
2018-11-23T07:30:23.079Z,19.98
2018-11-23T07:35:25.649Z,19.95
2018-11-23T07:40:38.849Z,18.56
2018-11-23T07:45:41.403Z,15.11
2018-11-23T07:50:43.963Z,14.55
2018-11-23T07:55:46.570Z,14.05
2018-11-23T08:00:49.123Z,13.76
2018-11-23T08:05:51.718Z,13.48
2018-11-23T08:10:53.584Z,13.30
2018-11-23T08:15:56.128Z,13.51
2018-11-23T08:20:58.656Z,13.60
2018-11-23T08:26:01.215Z,16.68
2018-11-23T08:31:03.861Z,18.17
2018-11-23T08:36:06.408Z,19.19
2018-11-23T08:41:09.162Z,19.51
2018-11-23T08:46:11.772Z,19.89
2018-11-23T08:51:14.514Z,20.36
2018-11-23T08:56:17.109Z,20.29
2018-11-23T09:01:19.647Z,20.20
2018-11-23T09:06:22.203Z,20.06
2018-11-23T09:11:24.882Z,19.97
2018-11-23T09:16:27.412Z,20.00
2018-11-23T09:21:29.958Z,19.86
2018-11-23T09:26:32.518Z,19.86
2018-11-23T09:31:35.063Z,19.76
2018-11-23T09:36:37.594Z,19.81
2018-11-23T09:41:40.206Z,19.85
2018-11-23T09:46:42.900Z,19.92
2018-11-23T09:51:45.453Z,19.86
2018-11-23T09:56:48.003Z,19.94
2018-11-23T10:01:50.615Z,19.98
2018-11-23T10:06:53.173Z,20.06
2018-11-23T10:11:55.739Z,20.03
2018-11-23T10:16:58.287Z,19.80
2018-11-23T10:22:00.964Z,19.85
2018-11-23T10:27:03.514Z,19.96
2018-11-23T10:32:06.083Z,20.03
2018-11-23T10:37:08.897Z,20.04
2018-11-23T10:42:11.470Z,16.95
2018-11-23T10:47:15.153Z,16.25
2018-11-23T10:52:17.732Z,18.54
2018-11-23T10:57:20.270Z,19.13
2018-11-23T11:02:28.157Z,19.41
2018-11-23T11:07:30.687Z,19.77
2018-11-23T11:12:33.212Z,19.94
2018-11-23T11:17:35.729Z,20.07
2018-11-23T11:22:38.671Z,19.15
2018-11-23T11:27:41.467Z,19.74
2018-11-23T11:32:44.463Z,19.80
2018-11-23T11:37:46.997Z,19.86
2018-11-23T11:42:49.515Z,19.87
2018-11-23T11:47:52.067Z,19.90
2018-11-23T11:52:54.604Z,19.86
2018-11-23T11:57:57.172Z,19.87
2018-11-23T12:02:59.724Z,19.89
2018-11-23T12:08:02.280Z,19.89
2018-11-23T12:13:05.190Z,19.86
2018-11-23T12:18:07.735Z,19.86
2018-11-23T12:23:10.266Z,19.87
2018-11-23T12:28:12.795Z,19.95
2018-11-23T12:33:15.349Z,19.94
2018-11-23T12:38:17.903Z,19.95
2018-11-23T12:43:20.427Z,19.92
2018-11-23T12:48:22.977Z,19.91
2018-11-23T12:53:25.496Z,19.92
2018-11-23T12:58:28.015Z,19.94
2018-11-23T13:03:30.836Z,19.95
2018-11-23T13:08:33.367Z,20.00
2018-11-23T13:13:53.147Z,20.00
2018-11-23T13:18:55.679Z,19.93
2018-11-23T13:23:58.570Z,20.00
2018-11-23T13:29:10.822Z,20.01
2018-11-23T13:34:03.821Z,20.03
2018-11-23T13:39:06.985Z,20.00
2018-11-23T13:44:09.566Z,20.00
2018-11-23T13:49:12.109Z,19.99
2018-11-23T13:54:14.642Z,19.97
2018-11-23T13:59:17.168Z,19.91
2018-11-23T14:04:20.005Z,19.90
2018-11-23T14:09:22.615Z,19.85
2018-11-23T14:14:25.154Z,19.87
2018-11-23T14:19:27.703Z,19.97
2018-11-23T14:24:30.272Z,19.86
2018-11-23T14:29:32.835Z,19.96
2018-11-23T14:34:35.394Z,19.86
2018-11-23T14:39:37.967Z,19.90
2018-11-23T14:44:40.654Z,19.88
2018-11-23T14:49:43.207Z,19.87
2018-11-23T14:54:45.750Z,19.86
2018-11-23T14:59:48.283Z,19.87
2018-11-23T15:04:51.151Z,19.93
2018-11-23T15:09:53.897Z,19.95
2018-11-23T15:14:56.588Z,20.00
2018-11-23T15:19:59.332Z,20.02
2018-11-23T15:25:01.887Z,20.06
2018-11-23T15:30:06.105Z,20.11
2018-11-23T15:35:09.200Z,20.13
2018-11-23T15:40:14.982Z,20.15
2018-11-23T15:45:18.987Z,20.17
2018-11-23T15:50:22.907Z,20.19
2018-11-23T15:55:27.747Z,20.23
2018-11-23T16:00:31.665Z,20.20
2018-11-23T16:05:34.227Z,20.23
2018-11-23T16:10:37.614Z,20.24
2018-11-23T16:15:40.159Z,20.28
2018-11-23T16:20:43.956Z,20.26
2018-11-23T16:25:47.236Z,20.28
2018-11-23T16:30:50.951Z,20.28
2018-11-23T16:35:53.478Z,20.29
2018-11-23T16:40:57.025Z,20.35
2018-11-23T16:45:59.600Z,20.49
2018-11-23T16:51:02.139Z,20.40
2018-11-23T16:56:04.792Z,20.42
2018-11-23T17:01:07.324Z,20.43
2018-11-23T17:06:09.863Z,20.79
2018-11-23T17:11:13.204Z,21.17
2018-11-23T17:16:15.903Z,21.61
2018-11-23T17:21:18.430Z,21.56
2018-11-23T17:26:21.434Z,21.62
2018-11-23T17:31:23.712Z,21.64
2018-11-23T17:36:26.321Z,21.64
2018-11-23T17:46:30.554Z,21.65
2018-11-23T17:51:33.172Z,21.57
2018-11-23T17:56:35.807Z,21.73
2018-11-23T18:01:38.340Z,21.71
2018-11-23T18:06:40.903Z,21.91
2018-11-23T18:11:43.508Z,21.66
2018-11-23T18:16:46.072Z,21.58
2018-11-23T18:21:48.593Z,21.60
2018-11-23T18:26:51.179Z,21.58
2018-11-23T18:31:53.712Z,21.62
2018-11-23T18:36:56.272Z,21.62
2018-11-23T18:41:59.004Z,21.81
2018-11-23T18:47:01.975Z,21.91
2018-11-23T18:52:04.977Z,21.87
2018-11-23T18:57:07.608Z,21.98
2018-11-23T19:02:10.148Z,21.90
2018-11-23T19:07:12.683Z,21.89
2018-11-23T19:17:24.232Z,21.79
2018-11-23T19:22:26.755Z,21.78
2018-11-23T19:27:29.531Z,21.87
2018-11-23T19:32:32.060Z,21.96
2018-11-23T19:37:34.588Z,21.89
2018-11-23T19:42:37.120Z,21.86
2018-11-23T19:47:39.672Z,21.91
2018-11-23T19:52:42.199Z,21.81
2018-11-23T19:57:44.751Z,21.75
2018-11-23T20:02:47.295Z,21.70
2018-11-23T20:07:51.186Z,21.67
2018-11-23T20:12:56.206Z,21.74
2018-11-23T20:17:58.767Z,21.65
2018-11-23T20:23:01.296Z,21.60
2018-11-23T20:28:03.812Z,21.58
2018-11-23T20:33:06.352Z,21.42
2018-11-23T20:38:08.862Z,21.38
2018-11-23T20:43:11.525Z,21.35
2018-11-23T20:48:14.112Z,21.26
2018-11-23T20:53:16.642Z,21.19
2018-11-23T20:58:19.155Z,21.21
2018-11-23T21:03:21.678Z,21.11
2018-11-23T21:08:24.181Z,21.13
2018-11-23T21:13:26.727Z,21.12
2018-11-23T21:18:29.232Z,21.18
2018-11-23T21:23:31.756Z,21.04
2018-11-23T21:28:34.302Z,21.09
2018-11-23T21:33:36.826Z,21.03
2018-11-23T21:38:39.373Z,21.02
2018-11-23T21:43:41.920Z,20.97
2018-11-23T21:48:44.448Z,20.94
2018-11-23T21:53:47.025Z,21.00
2018-11-23T21:58:49.553Z,20.96
2018-11-23T22:03:52.085Z,20.95
2018-11-23T22:08:54.615Z,20.97
2018-11-23T22:13:57.158Z,20.98
2018-11-23T22:18:59.688Z,21.01
2018-11-23T22:24:02.223Z,21.00
2018-11-23T22:29:05.029Z,20.98
2018-11-23T22:34:07.563Z,20.99
2018-11-23T22:39:11.082Z,20.99
2018-11-23T22:44:14.358Z,21.00
2018-11-23T22:49:17.520Z,20.98
2018-11-23T22:54:20.211Z,20.97
2018-11-23T22:59:22.733Z,20.99
2018-11-23T23:04:25.258Z,20.95
2018-11-23T23:09:27.790Z,20.96
2018-11-23T23:14:30.401Z,20.97
2018-11-23T23:19:32.961Z,20.98
2018-11-23T23:24:35.497Z,20.95
2018-11-23T23:29:38.055Z,20.95
2018-11-23T23:34:41.034Z,21.01
2018-11-23T23:39:43.569Z,20.96
2018-11-23T23:44:46.175Z,20.95
2018-11-23T23:49:48.700Z,20.96
2018-11-23T23:54:51.246Z,20.91
2018-11-23T23:59:53.785Z,20.92
